createdAt,value
2023-04-18T00:00:24.600Z,2.00
2023-04-18T00:03:05.095Z,2.00
2023-04-18T00:05:41.681Z,2.20
2023-04-18T00:11:43.071Z,2.10
2023-04-18T00:19:06.387Z,2.30
2023-04-18T00:31:21.650Z,2.70
2023-04-18T00:34:34.606Z,2.90
2023-04-18T00:37:25.698Z,3.90
2023-04-18T00:40:02.492Z,3.50
2023-04-18T00:42:42.552Z,3.00
2023-04-18T00:45:48.645Z,3.40
2023-04-18T00:48:43.019Z,3.50
2023-04-18T00:51:48.565Z,3.20
2023-04-18T00:54:26.772Z,3.30
2023-04-18T00:57:16.636Z,3.30
2023-04-18T00:59:52.319Z,2.90
2023-04-18T01:02:32.334Z,2.80
2023-04-18T01:05:09.995Z,2.60
2023-04-18T01:07:48.570Z,2.90
2023-04-18T01:11:15.715Z,2.20
2023-04-18T01:14:01.574Z,3.20
2023-04-18T01:16:44.801Z,2.50
2023-04-18T01:19:26.033Z,2.80
2023-04-18T01:21:57.107Z,3.20
2023-04-18T01:24:52.162Z,2.70
2023-04-18T01:30:40.988Z,2.90
2023-04-18T01:33:29.287Z,2.80
2023-04-18T01:36:16.181Z,2.50
2023-04-18T01:38:50.623Z,2.40
2023-04-18T01:41:41.133Z,2.60
2023-04-18T01:44:17.901Z,2.50
2023-04-18T01:46:50.089Z,2.80
2023-04-18T01:50:24.063Z,2.40
2023-04-18T01:56:02.449Z,2.80
2023-04-18T01:59:01.166Z,2.40
2023-04-18T02:13:44.527Z,1.90
2023-04-18T02:16:30.499Z,2.10
2023-04-18T02:19:04.230Z,2.90
2023-04-18T02:21:56.711Z,2.60
2023-04-18T02:24:46.746Z,2.00
2023-04-18T02:27:48.012Z,1.90
2023-04-18T02:30:24.626Z,2.20
2023-04-18T02:34:14.418Z,2.30
2023-04-18T02:36:51.916Z,2.80
2023-04-18T02:39:32.997Z,2.10
2023-04-18T02:42:21.562Z,2.30
2023-04-18T02:45:02.017Z,2.30
2023-04-18T02:48:04.898Z,2.20
2023-04-18T02:50:44.139Z,2.50
2023-04-18T02:56:47.610Z,2.80
2023-04-18T02:59:41.424Z,2.00
2023-04-18T03:02:32.716Z,1.90
2023-04-18T03:05:47.626Z,3.00
2023-04-18T03:08:51.035Z,2.50
2023-04-18T03:11:39.377Z,2.10
2023-04-18T03:15:35.482Z,2.10
2023-04-18T03:18:21.797Z,2.80
2023-04-18T03:21:40.979Z,1.80
2023-04-18T09:44:22.659Z,5.80
2023-04-18T09:51:23.229Z,3.40
2023-04-18T09:55:06.899Z,3.00
2023-04-18T09:58:31.856Z,2.90
2023-04-18T10:01:12.890Z,3.10
2023-04-18T10:03:50.018Z,3.00
2023-04-18T10:06:49.756Z,3.10
2023-04-18T10:09:44.292Z,3.00
2023-04-18T10:12:24.461Z,2.90
2023-04-18T10:15:01.579Z,3.00
2023-04-18T10:18:08.525Z,3.20
2023-04-18T10:20:49.391Z,3.30
2023-04-18T10:24:13.148Z,2.60
2023-04-18T10:27:18.607Z,2.70
2023-04-18T10:30:09.226Z,4.00
2023-04-18T10:41:40.257Z,3.80
2023-04-18T10:45:03.117Z,3.50
2023-04-18T10:52:27.449Z,3.00
2023-04-18T10:55:19.794Z,4.60
2023-04-18T10:57:51.151Z,4.60
2023-04-18T11:00:27.817Z,3.40
2023-04-18T11:03:42.075Z,3.00
2023-04-18T11:06:47.952Z,3.20
2023-04-18T11:09:24.034Z,2.60
2023-04-18T11:12:17.504Z,3.50
2023-04-18T11:15:23.485Z,3.00
2023-04-18T11:18:07.066Z,3.50
2023-04-18T11:21:10.321Z,3.30
2023-04-18T11:23:46.562Z,2.80
2023-04-18T11:26:23.290Z,3.00
2023-04-18T11:29:08.858Z,3.90
2023-04-18T11:31:41.351Z,4.00
2023-04-18T11:34:31.802Z,3.00
2023-04-18T11:38:11.192Z,3.30
2023-04-18T11:40:59.425Z,4.30
2023-04-18T11:43:52.949Z,3.60
2023-04-18T11:46:43.283Z,3.80
2023-04-18T11:50:01.424Z,3.30
2023-04-18T11:52:57.224Z,2.90
2023-04-18T18:48:23.705Z,3.60
2023-04-18T18:56:11.466Z,3.60
2023-04-18T18:59:06.182Z,3.70
2023-04-18T19:05:38.058Z,3.40
2023-04-18T19:09:19.431Z,4.40
2023-04-18T19:12:40.137Z,4.40
2023-04-18T19:15:31.457Z,3.80
2023-04-18T19:18:29.227Z,3.60
2023-04-18T19:21:56.249Z,3.50
2023-04-18T19:29:37.244Z,3.70
2023-04-18T19:37:23.540Z,4.00
2023-04-18T19:40:23.558Z,3.80
2023-04-18T19:43:19.960Z,3.20
2023-04-18T19:46:39.855Z,4.10
2023-04-18T19:49:57.992Z,3.60
2023-04-18T19:53:33.548Z,3.50
2023-04-18T19:56:31.534Z,4.50
2023-04-18T20:03:24.989Z,4.10
2023-04-18T20:07:00.298Z,3.70
2023-04-18T20:09:38.165Z,3.30
2023-04-18T20:13:32.516Z,3.60
2023-04-18T20:16:32.442Z,3.00
2023-04-18T20:19:18.098Z,2.90
2023-04-18T20:21:50.073Z,2.90
2023-04-18T20:27:38.581Z,3.10
2023-04-18T20:30:33.569Z,4.00
2023-04-18T20:33:47.525Z,3.70
2023-04-18T20:36:44.879Z,3.50
2023-04-18T20:39:21.964Z,3.50
2023-04-18T20:42:00.543Z,3.60
2023-04-18T20:45:03.331Z,3.00
2023-04-18T20:50:31.776Z,3.40
2023-04-18T20:54:20.033Z,3.40
2023-04-18T20:57:02.058Z,3.90
2023-04-18T21:00:02.393Z,3.60
2023-04-18T21:02:49.944Z,4.10
2023-04-18T21:05:41.215Z,4.50
2023-04-18T21:09:00.424Z,3.60
2023-04-18T21:11:36.743Z,3.70
2023-04-18T21:14:32.552Z,3.00
2023-04-18T21:17:06.674Z,3.40
2023-04-18T21:20:17.160Z,4.40
2023-04-18T21:23:15.115Z,4.10
2023-04-18T21:25:51.109Z,4.20
2023-04-18T21:28:30.583Z,3.70
2023-04-18T21:31:05.227Z,3.50
2023-04-18T21:33:46.583Z,4.00
2023-04-18T21:36:40.585Z,4.00
2023-04-18T21:39:18.908Z,4.30
2023-04-18T21:41:54.420Z,3.90
2023-04-18T21:44:49.600Z,4.40
2023-04-18T21:47:26.281Z,4.10
2023-04-18T21:50:09.723Z,4.50
2023-04-18T21:52:49.654Z,4.20
2023-04-18T21:55:22.579Z,4.20
2023-04-18T22:00:49.474Z,4.00
2023-04-18T22:03:23.932Z,4.60
2023-04-18T22:06:01.209Z,4.10
2023-04-18T22:08:36.508Z,4.60
2023-04-18T22:11:11.863Z,4.70
2023-04-18T22:14:17.941Z,4.60
2023-04-18T22:16:53.873Z,3.50
2023-04-18T22:19:27.952Z,4.20
2023-04-18T22:23:03.617Z,3.90
2023-04-18T22:25:59.953Z,4.60
2023-04-18T22:28:40.261Z,3.40
2023-04-18T22:31:21.531Z,3.40
2023-04-18T22:33:53.358Z,4.20
2023-04-18T22:36:45.089Z,4.10
2023-04-18T22:39:22.770Z,4.20
2023-04-18T22:41:55.759Z,3.80
2023-04-18T22:47:07.710Z,4.20
2023-04-18T22:57:58.207Z,4.00
2023-04-18T23:00:33.361Z,4.20
2023-04-18T23:03:20.686Z,3.80
2023-04-18T23:06:01.362Z,3.80
2023-04-18T23:08:40.953Z,4.30
2023-04-18T23:11:20.627Z,3.90
2023-04-18T23:14:00.385Z,3.90
2023-04-18T23:17:02.146Z,3.70
2023-04-18T23:19:41.453Z,3.90
2023-04-18T23:22:20.117Z,3.50
2023-04-18T23:24:52.330Z,3.70
2023-04-18T23:27:40.911Z,3.80
2023-04-18T23:30:42.601Z,3.60
2023-04-18T23:33:32.664Z,3.70
2023-04-18T23:36:07.047Z,3.80
2023-04-18T23:39:13.752Z,4.00
2023-04-18T23:41:55.061Z,4.00
2023-04-18T23:44:37.437Z,5.30
2023-04-18T23:47:34.556Z,3.20
2023-04-18T23:50:13.917Z,3.90
2023-04-18T23:52:51.658Z,3.90
2023-04-18T23:55:26.768Z,3.40
2023-04-18T23:58:05.726Z,3.20
